Fairfield, IL

1:38 AM CST on January 17, 2017 (GMT -0600)
Fairfield Municipal

Weather History for KFWC - March, 2013

Change the Weather History Date:

Wednesday, March 27, 2013

  Actual Average (KMVN) Record (KMVN)
Temperature  
Mean Temperature 35 °F -  
Max Temperature 44 °F 57 °F 82 °F (2007)
Min Temperature 26 °F 37 °F 15 °F (2001)
Degree Days  
Heating Degree Days 30    
Moisture  
Dew Point 25 °F    
Average Humidity 67    
Maximum Humidity 86    
Minimum Humidity 43    
Precipitation  
Precipitation 0.03 in - - ()
Sea Level Pressure  
Sea Level Pressure 30.36 in    
Wind  
Wind Speed 2 mph (NW)    
Max Wind Speed 7 mph    
Max Gust Speed -    
Visibility 10 miles    
Events      
Averages and records for this station are not official NWS values.
T = Trace of Precipitation, MM = Missing Value Source: NWS Daily Summary

Daily Weather History Graph

Daily Weather History Graph

Search for Another Location

Airport or City:

Trip Planner

Search our weather history database for the weather conditions in past years. The results will help you decide how hot, cold, wet, or windy it might be!

Date:

Astronomy

Mar. 27, 2013 Rise Set
Actual Time 6:45 AM CDT 7:12 PM CDT
Civil Twilight 6:19 AM CDT 7:39 PM CDT
Nautical Twilight 5:48 AM CDT 8:10 PM CDT
Astronomical Twilight 5:16 AM CDT 8:42 PM CDT
Moon 7:54 PM CDT (3/27) 6:37 AM CDT (3/27)
Length of Visible Light 13h 19m
Length of Day
12h 26m
Full, 100% of the Moon is Illuminated
Mar 27
Full
Apr 2
Last Quarter
Apr 10
New
Apr 18
First Quarter
Apr 25
Full

Hourly Weather History & Observations

Time (CDT) Temp. Windchill Dew Point Humidity Pressure Visibility Wind Dir Wind Speed Gust Speed Precip Events Conditions
12:15 AM 28.4 °F - 24.8 °F 86% 30.35 in 10.0 mi Calm Calm - N/A   Clear
12:35 AM 28.4 °F - 24.8 °F 86% 30.35 in 10.0 mi Calm Calm - N/A   Clear
12:55 AM 28.4 °F - 24.8 °F 86% 30.35 in 10.0 mi Calm Calm - N/A   Clear
1:15 AM 28.4 °F - 24.8 °F 86% 30.35 in 10.0 mi Calm Calm - N/A   Clear
1:35 AM 28.4 °F - 24.8 °F 86% 30.35 in 10.0 mi Calm Calm - N/A   Clear
1:55 AM 30.2 °F - 24.8 °F 80% 30.35 in 10.0 mi Calm Calm - N/A   Clear
2:15 AM 28.4 °F - 24.8 °F 86% 30.36 in 10.0 mi Calm Calm - N/A   Clear
2:35 AM 28.4 °F - 24.8 °F 86% 30.35 in 10.0 mi Calm Calm - N/A   Clear
2:55 AM 28.4 °F - 24.8 °F 86% 30.35 in 10.0 mi Calm Calm - N/A   Clear
3:15 AM 30.2 °F 26.7 °F 24.8 °F 80% 30.35 in 10.0 mi WNW 3.5 mph - N/A   Clear
3:35 AM 30.2 °F 26.7 °F 24.8 °F 80% 30.34 in 10.0 mi WNW 3.5 mph - N/A   Clear
3:55 AM 30.2 °F - 24.8 °F 80% 30.35 in 10.0 mi Calm Calm - N/A   Clear
4:15 AM 30.2 °F - 24.8 °F 80% 30.35 in 10.0 mi Calm Calm - N/A   Clear
4:35 AM 28.4 °F - 24.8 °F 86% 30.35 in 10.0 mi Calm Calm - N/A   Clear
4:55 AM 28.4 °F 24.6 °F 24.8 °F 86% 30.34 in 10.0 mi WNW 3.5 mph - N/A   Clear
5:15 AM 30.2 °F 26.7 °F 24.8 °F 80% 30.34 in 10.0 mi NW 3.5 mph - N/A   Clear
5:35 AM 30.2 °F - 24.8 °F 80% 30.34 in 10.0 mi Calm Calm - N/A   Clear
5:55 AM 30.2 °F 26.7 °F 24.8 °F 80% 30.35 in 10.0 mi NW 3.5 mph - N/A   Clear
6:15 AM 30.2 °F - 24.8 °F 80% 30.35 in 10.0 mi Calm Calm - N/A   Clear
6:35 AM 28.4 °F - 24.8 °F 86% 30.37 in 10.0 mi Calm Calm - N/A   Clear
6:55 AM 26.6 °F - 21.2 °F 80% 30.36 in 10.0 mi Calm Calm - N/A   Clear
7:15 AM 28.4 °F - 24.8 °F 86% 30.38 in 10.0 mi Calm Calm - N/A   Clear
7:35 AM 28.4 °F - 24.8 °F 86% 30.38 in 10.0 mi Calm Calm - N/A   Clear
7:55 AM 30.2 °F - 26.6 °F 86% 30.38 in 10.0 mi Calm Calm - N/A   Clear
8:15 AM 30.2 °F - 26.6 °F 86% 30.39 in 10.0 mi Calm Calm - N/A   Clear
8:35 AM 33.8 °F - 26.6 °F 75% 30.38 in 10.0 mi Calm Calm - N/A   Clear
8:55 AM 33.8 °F - 26.6 °F 75% 30.39 in 10.0 mi Calm Calm - N/A   Clear
9:15 AM 35.6 °F 31.7 °F 26.6 °F 70% 30.40 in 10.0 mi WNW 4.6 mph - N/A   Clear
9:35 AM 35.6 °F 32.8 °F 26.6 °F 70% 30.39 in 10.0 mi NNW 3.5 mph - N/A   Clear
9:55 AM 37.4 °F - 26.6 °F 65% 30.39 in 10.0 mi Calm Calm - N/A   Clear
10:15 AM 37.4 °F 33.8 °F 24.8 °F 60% 30.40 in 10.0 mi West 4.6 mph - N/A   Clear
10:35 AM 39.2 °F 35.0 °F 24.8 °F 56% 30.40 in 10.0 mi WSW 5.8 mph - N/A   Clear
10:55 AM 41.0 °F 36.4 °F 26.6 °F 57% 30.40 in 10.0 mi West 6.9 mph - N/A   Clear
11:15 AM 39.2 °F 35.0 °F 24.8 °F 56% 30.40 in 10.0 mi West 5.8 mph - N/A   Scattered Clouds
11:35 AM 39.2 °F 35.0 °F 21.2 °F 49% 30.40 in 10.0 mi West 5.8 mph - N/A   Scattered Clouds
11:55 AM 41.0 °F 39.0 °F 24.8 °F 53% 30.40 in 10.0 mi WSW 3.5 mph - N/A   Scattered Clouds
12:15 PM 42.8 °F 40.1 °F 24.8 °F 49% 30.41 in - WNW 4.6 mph - 0.03 in   Scattered Clouds
12:35 PM 42.8 °F 38.6 °F 26.6 °F 53% 30.40 in 10.0 mi West 6.9 mph - N/A   Unknown
12:55 PM 42.8 °F 40.1 °F 24.8 °F 49% 30.40 in 10.0 mi West 4.6 mph - N/A   Scattered Clouds
1:15 PM 42.8 °F 40.1 °F 26.6 °F 53% 30.39 in 10.0 mi North 4.6 mph - N/A   Mostly Cloudy
1:35 PM 42.8 °F - 24.8 °F 49% 30.38 in 10.0 mi Calm Calm - N/A   Mostly Cloudy
1:55 PM 42.8 °F 38.6 °F 24.8 °F 49% 30.37 in 10.0 mi West 6.9 mph - N/A   Scattered Clouds
2:15 PM 44.6 °F 42.2 °F 24.8 °F 46% 30.36 in 10.0 mi NW 4.6 mph - N/A   Scattered Clouds
2:35 PM 44.6 °F - 24.8 °F 46% 30.36 in 10.0 mi Calm Calm - N/A   Scattered Clouds
2:55 PM 44.6 °F - 23.0 °F 43% 30.36 in 10.0 mi Calm Calm - N/A   Scattered Clouds
3:15 PM 44.6 °F 43.1 °F 24.8 °F 46% 30.35 in 10.0 mi West 3.5 mph - N/A   Clear
3:35 PM 44.6 °F - 23.0 °F 43% 30.34 in 10.0 mi Calm Calm - N/A   Clear
3:55 PM 44.6 °F 42.2 °F 23.0 °F 43% 30.34 in 10.0 mi West 4.6 mph - N/A   Clear
4:15 PM 44.6 °F 43.1 °F 24.8 °F 46% 30.34 in 10.0 mi WSW 3.5 mph - N/A   Clear
4:35 PM 44.6 °F 42.2 °F 23.0 °F 43% 30.34 in 10.0 mi WSW 4.6 mph - N/A   Clear
4:55 PM 44.6 °F - 24.8 °F 46% 30.33 in 10.0 mi Calm Calm - N/A   Clear
5:15 PM 44.6 °F 42.2 °F 23.0 °F 43% 30.33 in 10.0 mi West 4.6 mph - N/A   Clear
5:35 PM 44.6 °F - 24.8 °F 46% 30.33 in 10.0 mi Calm Calm - N/A   Clear
5:55 PM 44.6 °F 42.2 °F 24.8 °F 46% 30.33 in 10.0 mi West 4.6 mph - N/A   Clear
6:15 PM 44.6 °F - 23.0 °F 43% 30.33 in 10.0 mi Calm Calm - N/A   Clear
6:35 PM 44.6 °F - 23.0 °F 43% 30.32 in 10.0 mi Calm Calm - N/A   Clear
6:55 PM 42.8 °F - 24.8 °F 49% 30.33 in 10.0 mi Calm Calm - N/A   Clear
7:15 PM 42.8 °F - 24.8 °F 49% 30.32 in 10.0 mi Calm Calm - N/A   Clear
7:35 PM 41.0 °F - 24.8 °F 53% 30.33 in 10.0 mi Calm Calm - N/A   Clear
7:55 PM 39.2 °F - 26.6 °F 61% 30.33 in 10.0 mi Calm Calm - N/A   Clear
8:15 PM 37.4 °F 34.9 °F 26.6 °F 65% 30.33 in 10.0 mi NNE 3.5 mph - N/A   Clear
8:35 PM 37.4 °F - 28.4 °F 70% 30.34 in 10.0 mi Calm Calm - N/A   Clear
8:55 PM 37.4 °F - 26.6 °F 65% 30.34 in 10.0 mi Calm Calm - N/A   Clear
9:15 PM 37.4 °F 34.9 °F 28.4 °F 70% 30.34 in 7.0 mi NNE 3.5 mph - N/A   Clear
9:35 PM 35.6 °F 31.7 °F 28.4 °F 75% 30.34 in 10.0 mi NE 4.6 mph - N/A   Clear
9:55 PM 35.6 °F 31.7 °F 28.4 °F 75% 30.34 in 10.0 mi NNE 4.6 mph - N/A   Clear
10:15 PM 35.6 °F 32.8 °F 28.4 °F 75% 30.34 in 10.0 mi NNE 3.5 mph - N/A   Clear
10:35 PM 33.8 °F 29.6 °F 28.4 °F 81% 30.35 in 10.0 mi NNE 4.6 mph - N/A   Clear
10:55 PM 33.8 °F 29.6 °F 28.4 °F 81% 30.35 in 10.0 mi NNE 4.6 mph - N/A   Scattered Clouds
11:15 PM 33.8 °F 29.6 °F 28.4 °F 81% 30.34 in 10.0 mi NNE 4.6 mph - N/A   Scattered Clouds
11:35 PM 33.8 °F 30.8 °F 28.4 °F 81% 30.34 in 10.0 mi NE 3.5 mph - N/A   Scattered Clouds
11:55 PM 33.8 °F 30.8 °F 26.6 °F 75% 30.35 in 10.0 mi NE 3.5 mph - N/A   Scattered Clouds